createdAt,value
2018-07-03T00:00:12.427Z,20.02
2018-07-03T00:01:12.397Z,20.06
2018-07-03T00:02:12.144Z,20.04
2018-07-03T00:03:12.390Z,20.04
2018-07-03T00:04:12.422Z,20.06
2018-07-03T00:05:12.654Z,20.11
2018-07-03T00:06:12.391Z,20.03
2018-07-03T00:07:12.655Z,20.06
2018-07-03T00:08:12.402Z,20
2018-07-03T00:09:12.142Z,20.02
2018-07-03T00:10:12.644Z,20.04
2018-07-03T00:11:12.397Z,19.94
2018-07-03T00:12:12.651Z,19.91
2018-07-03T00:13:12.401Z,20.02
2018-07-03T00:14:12.662Z,19.94
2018-07-03T00:15:12.398Z,19.92
2018-07-03T00:16:12.401Z,19.91
2018-07-03T00:17:12.695Z,19.86
2018-07-03T00:18:12.398Z,19.82
2018-07-03T00:19:12.404Z,19.84
2018-07-03T00:20:12.664Z,19.82
2018-07-03T00:21:12.413Z,19.77
2018-07-03T00:22:12.166Z,19.74
2018-07-03T00:23:12.699Z,19.7
2018-07-03T00:24:12.407Z,19.66
2018-07-03T00:25:12.658Z,19.71
2018-07-03T00:26:12.664Z,19.71
2018-07-03T00:27:12.682Z,19.73
2018-07-03T00:28:12.675Z,19.74
2018-07-03T00:29:12.672Z,19.74
2018-07-03T00:30:12.421Z,19.74
2018-07-03T00:31:12.420Z,19.7
2018-07-03T00:32:12.434Z,19.69
2018-07-03T00:33:12.422Z,19.71
2018-07-03T00:34:12.679Z,19.69
2018-07-03T00:35:12.467Z,19.7
2018-07-03T00:36:12.480Z,19.69
2018-07-03T00:37:12.689Z,19.67
2018-07-03T00:38:12.432Z,19.76
2018-07-03T00:39:12.430Z,19.63
2018-07-03T00:40:12.438Z,19.7
2018-07-03T00:41:12.689Z,19.74
2018-07-03T00:42:12.690Z,19.74
2018-07-03T00:43:12.447Z,19.71
2018-07-03T00:44:12.690Z,19.63
2018-07-03T00:45:12.447Z,19.55
2018-07-03T00:46:12.702Z,19.52
2018-07-03T00:47:12.440Z,19.58
2018-07-03T00:48:12.717Z,19.47
2018-07-03T00:49:12.695Z,19.44
2018-07-03T00:50:12.444Z,19.4
2018-07-03T00:51:12.198Z,19.37
2018-07-03T00:52:12.706Z,19.29
2018-07-03T00:53:12.715Z,19.34
2018-07-03T00:54:12.752Z,19.34
2018-07-03T00:55:12.586Z,19.22
2018-07-03T00:56:12.458Z,19.3
2018-07-03T00:57:12.713Z,19.3
2018-07-03T00:58:12.471Z,19.22
2018-07-03T00:59:12.726Z,19.18
2018-07-03T01:00:12.743Z,19.18
2018-07-03T01:01:13.510Z,19.15
2018-07-03T01:02:12.755Z,19.21
2018-07-03T01:03:12.734Z,19.11
2018-07-03T01:04:12.746Z,19.14
2018-07-03T01:05:12.747Z,19.16
2018-07-03T01:06:12.714Z,19.09
2018-07-03T01:07:12.212Z,19.12
2018-07-03T01:08:12.473Z,19.14
2018-07-03T01:09:12.726Z,19.09
2018-07-03T01:10:12.474Z,19.16
2018-07-03T01:11:12.465Z,19.12
2018-07-03T01:12:12.479Z,19.16
2018-07-03T01:13:12.760Z,19.18
2018-07-03T01:14:12.474Z,19.14
2018-07-03T01:15:12.785Z,19.15
2018-07-03T01:16:12.744Z,19.14
2018-07-03T01:17:12.737Z,19.16
2018-07-03T01:18:12.732Z,19.18
2018-07-03T01:19:12.475Z,19.18
2018-07-03T01:20:12.788Z,19.16
2018-07-03T01:21:12.490Z,19.14
2018-07-03T01:22:12.739Z,19.15
2018-07-03T01:23:12.760Z,19.14
2018-07-03T01:24:12.742Z,19.12
2018-07-03T01:25:12.759Z,19.16
2018-07-03T01:26:12.556Z,19.16
2018-07-03T01:27:12.760Z,19.14
2018-07-03T01:28:12.494Z,19.16
2018-07-03T01:29:12.247Z,19.07
2018-07-03T01:30:12.254Z,19.12
2018-07-03T01:31:12.766Z,19.08
2018-07-03T01:32:12.488Z,19.09
2018-07-03T01:33:12.779Z,19.04
2018-07-03T01:34:12.515Z,19
2018-07-03T01:35:12.764Z,18.99
2018-07-03T01:36:12.875Z,18.92
2018-07-03T01:37:12.258Z,18.9
2018-07-03T01:38:12.751Z,18.95
2018-07-03T01:39:12.499Z,18.98
2018-07-03T01:40:12.512Z,18.93
2018-07-03T01:41:12.239Z,18.98
2018-07-03T01:42:12.503Z,18.93
2018-07-03T01:43:12.503Z,18.92
2018-07-03T01:44:12.772Z,18.96
2018-07-03T01:45:12.497Z,18.96
2018-07-03T01:46:12.270Z,18.98
2018-07-03T01:47:12.770Z,19
2018-07-03T01:48:12.773Z,18.96
2018-07-03T01:49:12.512Z,18.96
2018-07-03T01:50:12.549Z,18.95
2018-07-03T01:51:12.520Z,18.89
2018-07-03T01:52:12.267Z,18.95
2018-07-03T01:53:12.770Z,18.8
2018-07-03T01:54:12.520Z,18.83
2018-07-03T01:55:12.782Z,18.81
2018-07-03T01:56:12.792Z,18.83
2018-07-03T01:57:12.260Z,18.83
2018-07-03T01:58:12.524Z,18.66
2018-07-03T01:59:12.781Z,18.74
2018-07-03T02:00:12.780Z,18.73
2018-07-03T02:01:12.789Z,18.7
2018-07-03T02:02:12.524Z,18.74
2018-07-03T02:03:12.270Z,18.71
2018-07-03T02:04:12.787Z,18.71
2018-07-03T02:05:12.780Z,18.63
2018-07-03T02:06:12.834Z,18.71
2018-07-03T02:07:12.805Z,18.65
2018-07-03T02:08:12.836Z,18.7
2018-07-03T02:09:12.531Z,18.71
2018-07-03T02:10:12.801Z,18.7
2018-07-03T02:11:12.536Z,18.71
2018-07-03T02:12:12.282Z,18.65
2018-07-03T02:13:12.779Z,18.66
2018-07-03T02:14:12.529Z,18.66
2018-07-03T02:15:12.795Z,18.62
2018-07-03T02:16:12.527Z,18.56
2018-07-03T02:17:12.530Z,18.58
2018-07-03T02:18:12.527Z,18.66
2018-07-03T02:19:12.546Z,18.59
2018-07-03T02:20:12.290Z,18.55
2018-07-03T02:21:12.552Z,18.47
2018-07-03T02:22:12.290Z,18.53
2018-07-03T02:23:12.284Z,18.49
2018-07-03T02:24:12.286Z,18.49
2018-07-03T02:25:12.294Z,18.45
2018-07-03T02:26:12.555Z,18.37
2018-07-03T02:27:12.283Z,18.43
2018-07-03T02:28:12.545Z,18.38
2018-07-03T02:29:12.543Z,18.38
2018-07-03T02:30:12.805Z,18.33
2018-07-03T02:31:13.619Z,18.28
2018-07-03T02:32:12.553Z,18.31
2018-07-03T02:33:12.553Z,18.29
2018-07-03T02:34:12.551Z,18.33
2018-07-03T02:35:12.293Z,18.2
2018-07-03T02:36:12.558Z,18.25
2018-07-03T02:37:12.804Z,18.11
2018-07-03T02:38:12.546Z,18.13
2018-07-03T02:39:12.591Z,18.16
2018-07-03T02:40:12.805Z,18.08
2018-07-03T02:41:12.556Z,18.18
2018-07-03T02:42:12.551Z,18.15
2018-07-03T02:43:12.818Z,18.01
2018-07-03T02:44:12.830Z,18.04
2018-07-03T02:45:12.555Z,18.05
2018-07-03T02:46:12.550Z,18.03
2018-07-03T02:47:12.810Z,18.04
2018-07-03T02:48:12.579Z,18.08
2018-07-03T02:49:12.809Z,18.03
2018-07-03T02:50:12.837Z,17.94
2018-07-03T02:51:12.812Z,18.01
2018-07-03T02:52:12.813Z,17.87
2018-07-03T02:53:12.560Z,17.92
2018-07-03T02:54:12.307Z,17.92
2018-07-03T02:55:12.816Z,17.85
2018-07-03T02:56:12.558Z,17.94
2018-07-03T02:57:12.574Z,17.9
2018-07-03T02:58:12.851Z,17.92
2018-07-03T02:59:12.831Z,17.92
2018-07-03T03:00:12.584Z,17.89
2018-07-03T03:01:12.570Z,17.97
2018-07-03T03:02:12.836Z,17.97
2018-07-03T03:03:12.826Z,17.95
2018-07-03T03:04:12.569Z,18.05
2018-07-03T03:05:12.552Z,17.94
2018-07-03T03:06:12.572Z,18.08
2018-07-03T03:07:12.309Z,17.9
2018-07-03T03:08:12.912Z,17.97
2018-07-03T03:09:12.845Z,17.97
2018-07-03T03:10:12.840Z,17.9
2018-07-03T03:11:12.830Z,17.97
2018-07-03T03:12:12.829Z,17.9
2018-07-03T03:13:12.573Z,17.94
2018-07-03T03:14:12.580Z,17.9
2018-07-03T03:15:12.571Z,17.79
2018-07-03T03:16:12.569Z,17.92
2018-07-03T03:17:12.580Z,17.97
2018-07-03T03:18:12.579Z,17.89
2018-07-03T03:19:12.320Z,17.85
2018-07-03T03:20:12.835Z,17.82
2018-07-03T03:21:12.832Z,17.97
2018-07-03T03:22:12.846Z,17.98
2018-07-03T03:23:12.587Z,17.89
2018-07-03T03:24:12.599Z,17.97
2018-07-03T03:25:12.589Z,18
2018-07-03T03:26:12.319Z,18.01
2018-07-03T03:27:12.311Z,18.03
2018-07-03T03:28:12.844Z,18.07
2018-07-03T03:29:12.311Z,18.04
2018-07-03T03:30:12.602Z,18.03
2018-07-03T03:31:12.878Z,18.04
2018-07-03T03:32:12.583Z,18.04
2018-07-03T03:33:12.321Z,18.04
2018-07-03T03:34:12.334Z,18.05
2018-07-03T03:35:12.887Z,18.04
2018-07-03T03:36:12.896Z,18.08
2018-07-03T03:37:12.590Z,18.01
2018-07-03T03:38:12.867Z,18.11
2018-07-03T03:39:12.573Z,18.03
2018-07-03T03:40:12.590Z,18.16
2018-07-03T03:41:12.587Z,18.07
2018-07-03T03:42:12.846Z,18.13
2018-07-03T03:43:12.322Z,18.16
2018-07-03T03:44:12.581Z,18.1
2018-07-03T03:45:12.599Z,18.2
2018-07-03T03:46:12.844Z,18.13
2018-07-03T03:47:12.844Z,18.22
2018-07-03T03:48:12.592Z,18.2
2018-07-03T03:49:12.584Z,18.25
2018-07-03T03:50:12.850Z,18.26
2018-07-03T03:51:12.609Z,18.31
2018-07-03T03:52:12.860Z,18.35
2018-07-03T03:53:12.345Z,18.26
2018-07-03T03:54:12.853Z,18.31
2018-07-03T03:55:12.591Z,18.33
2018-07-03T03:56:12.581Z,18.37
2018-07-03T03:57:12.593Z,18.44
2018-07-03T03:58:12.585Z,18.59
2018-07-03T03:59:12.606Z,18.71
2018-07-03T04:00:12.334Z,18.95
2018-07-03T04:01:12.840Z,19.16
2018-07-03T04:02:12.687Z,19.34
2018-07-03T04:03:12.858Z,19.58
2018-07-03T04:04:12.595Z,19.81
2018-07-03T04:05:12.607Z,20.1
2018-07-03T04:06:12.598Z,20.39
2018-07-03T04:07:12.606Z,20.52
2018-07-03T04:08:12.344Z,20.72
2018-07-03T04:09:12.362Z,20.97
2018-07-03T04:10:12.886Z,21.21
2018-07-03T04:11:12.605Z,21.36
2018-07-03T04:12:12.356Z,21.46
2018-07-03T04:13:12.605Z,21.66
2018-07-03T04:14:12.373Z,21.82
2018-07-03T04:15:12.885Z,21.96
2018-07-03T04:16:12.634Z,22
2018-07-03T04:17:12.632Z,22.1
2018-07-03T04:18:12.870Z,22.2
2018-07-03T04:19:12.893Z,22.22
2018-07-03T04:20:12.650Z,22.2
2018-07-03T04:21:12.673Z,22.28
2018-07-03T04:22:12.889Z,22.36
2018-07-03T04:23:12.915Z,22.53
2018-07-03T04:24:12.932Z,22.57
2018-07-03T04:25:12.641Z,22.62
2018-07-03T04:26:12.937Z,22.62
2018-07-03T04:27:12.401Z,22.76
2018-07-03T04:28:12.908Z,22.9
2018-07-03T04:29:12.407Z,23.15
2018-07-03T04:30:12.920Z,23.39
2018-07-03T04:31:12.690Z,23.58
2018-07-03T04:32:12.670Z,23.74
2018-07-03T04:33:12.945Z,23.78
2018-07-03T04:34:13.137Z,23.8
2018-07-03T04:35:12.686Z,23.71
2018-07-03T04:36:12.443Z,23.78
2018-07-03T04:37:12.938Z,23.65
2018-07-03T04:38:12.951Z,23.68
2018-07-03T04:39:12.464Z,23.8
2018-07-03T04:40:12.953Z,23.99
2018-07-03T04:41:12.482Z,24.05
2018-07-03T04:42:12.707Z,23.96
2018-07-03T04:43:12.726Z,23.96
2018-07-03T04:44:12.726Z,23.71
2018-07-03T04:45:12.736Z,23.46
2018-07-03T04:46:12.975Z,23.09
2018-07-03T04:47:12.486Z,22.76
2018-07-03T04:48:12.989Z,22.69
2018-07-03T04:49:12.990Z,22.85
2018-07-03T04:50:12.765Z,23.03
2018-07-03T04:51:13.012Z,23.15
2018-07-03T04:52:13.013Z,23.28
2018-07-03T04:53:13.015Z,23.54
2018-07-03T04:54:12.775Z,23.68
2018-07-03T04:55:13.033Z,23.95
2018-07-03T04:56:12.796Z,24.3
2018-07-03T04:57:12.781Z,24.5
2018-07-03T04:58:13.050Z,24.63
2018-07-03T04:59:12.804Z,24.68
2018-07-03T05:00:13.046Z,24.66
2018-07-03T05:01:13.049Z,24.55
2018-07-03T05:02:13.083Z,24.66
2018-07-03T05:03:12.574Z,24.66
2018-07-03T05:04:13.070Z,24.6
2018-07-03T05:05:12.846Z,24.39
2018-07-03T05:06:12.839Z,24.28
2018-07-03T05:07:13.096Z,24.3
2018-07-03T05:08:13.090Z,24.24
2018-07-03T05:09:13.118Z,24.2
2018-07-03T05:10:13.245Z,24.23
2018-07-03T05:11:12.598Z,24.3
2018-07-03T05:12:13.118Z,24.36
2018-07-03T05:13:13.126Z,24.42
2018-07-03T05:14:12.882Z,24.43
2018-07-03T05:15:12.637Z,24.55
2018-07-03T05:16:13.141Z,24.85
2018-07-03T05:17:12.643Z,24.93
2018-07-03T05:18:12.913Z,24.98
2018-07-03T05:19:12.909Z,25.01
2018-07-03T05:20:12.930Z,24.96
2018-07-03T05:21:12.662Z,25.01
2018-07-03T05:22:12.919Z,24.98
2018-07-03T05:23:12.930Z,25.14
2018-07-03T05:24:12.961Z,25.1
2018-07-03T05:25:12.945Z,25.18
2018-07-03T05:26:12.684Z,25.13
2018-07-03T05:27:13.203Z,25.18
2018-07-03T05:28:13.207Z,24.8
2018-07-03T05:29:12.960Z,24.39
2018-07-03T05:30:13.220Z,23.98
2018-07-03T05:31:12.966Z,23.66
2018-07-03T05:32:13.228Z,23.46
2018-07-03T05:33:13.231Z,22.93
2018-07-03T05:34:13.255Z,22.63
2018-07-03T05:35:12.989Z,22.29
2018-07-03T05:36:12.995Z,22.13
2018-07-03T05:37:13.380Z,21.88
2018-07-03T05:38:12.760Z,21.96
2018-07-03T05:39:13.005Z,22.2
2018-07-03T05:40:13.272Z,22.75
2018-07-03T05:41:13.013Z,23.36
2018-07-03T05:42:13.026Z,23.81
2018-07-03T05:43:13.279Z,24.35
2018-07-03T05:44:13.286Z,24.63
2018-07-03T05:45:12.797Z,25.06
2018-07-03T05:46:13.296Z,25.33
2018-07-03T05:47:13.299Z,25.43
2018-07-03T05:48:13.053Z,25.51
2018-07-03T05:49:13.304Z,25.48
2018-07-03T05:50:13.056Z,25.68
2018-07-03T05:51:13.334Z,26
2018-07-03T05:52:12.823Z,26.28
2018-07-03T05:53:13.298Z,26.73
2018-07-03T05:54:13.337Z,26.84
2018-07-03T05:55:13.346Z,26.85
2018-07-03T05:56:13.140Z,26.83
2018-07-03T05:57:13.107Z,26.9
2018-07-03T05:58:13.362Z,26.81
2018-07-03T05:59:13.109Z,26.71
2018-07-03T06:00:13.127Z,26.73
2018-07-03T06:01:13.584Z,26.73
2018-07-03T06:02:13.385Z,26.77
2018-07-03T06:03:13.411Z,26.89
2018-07-03T06:04:13.401Z,27.08
2018-07-03T06:05:13.251Z,27.05
2018-07-03T06:06:13.409Z,27.05
2018-07-03T06:07:13.165Z,26.96
2018-07-03T06:08:13.180Z,27.02
2018-07-03T06:09:13.725Z,26.97
2018-07-03T06:10:13.537Z,27.07
2018-07-03T06:11:13.212Z,27.25
2018-07-03T06:12:13.454Z,27.47
2018-07-03T06:13:13.751Z,27.68
2018-07-03T06:14:13.493Z,27.83
2018-07-03T06:24:38.672Z,28.94
2018-07-03T06:25:38.445Z,28.79
2018-07-03T06:26:38.678Z,28.72
2018-07-03T06:27:38.698Z,28.98
2018-07-03T06:28:38.746Z,29.17
2018-07-03T06:29:38.756Z,29.36
2018-07-03T06:30:38.452Z,29.53
2018-07-03T06:31:38.486Z,29.71
2018-07-03T06:32:38.727Z,29.82
2018-07-03T06:33:38.239Z,29.79
2018-07-03T06:34:38.752Z,29.84
2018-07-03T06:35:38.740Z,29.66
2018-07-03T06:36:38.502Z,29.36
2018-07-03T06:37:38.288Z,29.44
2018-07-03T06:38:38.772Z,29.66
2018-07-03T06:39:38.514Z,29.81
2018-07-03T06:40:38.790Z,30.16
2018-07-03T06:41:38.534Z,30.4
2018-07-03T06:42:38.547Z,30.46
2018-07-03T06:43:38.550Z,30.44
2018-07-03T06:44:38.567Z,30.43
2018-07-03T06:45:38.866Z,30.19
2018-07-03T06:46:38.836Z,29.93
2018-07-03T06:47:38.608Z,29.63
2018-07-03T06:48:38.857Z,29.56
2018-07-03T06:49:38.339Z,29.93
2018-07-03T06:50:38.873Z,30.24
2018-07-03T06:51:38.704Z,30.48
2018-07-03T06:52:38.870Z,30.83
2018-07-03T06:53:38.372Z,31.25
2018-07-03T06:54:38.890Z,31.49
2018-07-03T06:55:38.657Z,31.56
2018-07-03T06:56:38.662Z,31.4
2018-07-03T06:57:38.659Z,31.27
2018-07-03T06:58:38.671Z,30.77
2018-07-03T06:59:39.739Z,30.47
2018-07-03T07:00:38.950Z,30.5
2018-07-03T07:01:38.452Z,30.13
2018-07-03T07:02:38.448Z,29.86
2018-07-03T07:03:38.807Z,29.5
2018-07-03T07:04:38.802Z,29.04
2018-07-03T07:05:39.003Z,28.74
2018-07-03T07:06:38.475Z,28.56
2018-07-03T07:07:38.749Z,28.52
2018-07-03T07:08:38.947Z,29.04
2018-07-03T07:09:38.954Z,29.68
2018-07-03T07:10:38.564Z,30.21
2018-07-03T07:11:39.030Z,30.47
2018-07-03T07:12:39.037Z,30.55
2018-07-03T07:13:38.789Z,30.59
2018-07-03T07:14:38.805Z,30.65
2018-07-03T07:15:38.815Z,30.88
2018-07-03T07:16:38.818Z,31
2018-07-03T07:17:38.839Z,31.07
2018-07-03T07:18:38.825Z,31.37
2018-07-03T07:19:38.849Z,31.81
2018-07-03T07:20:38.682Z,31.96
2018-07-03T07:21:38.855Z,32.11
2018-07-03T07:22:38.876Z,32.09
2018-07-03T07:23:39.135Z,32.16
2018-07-03T07:24:38.895Z,32.36
2018-07-03T07:25:38.950Z,32.58
2018-07-03T07:26:38.649Z,32.43
2018-07-03T07:27:39.176Z,32.04
2018-07-03T07:28:38.908Z,31.89
2018-07-03T07:29:38.926Z,31.89
2018-07-03T07:30:38.989Z,32.09
2018-07-03T07:31:39.191Z,32.31
2018-07-03T07:32:38.701Z,32.56
2018-07-03T07:33:39.214Z,32.87
2018-07-03T07:34:38.963Z,33
2018-07-03T07:35:39.260Z,33.08
2018-07-03T07:36:39.247Z,33.24
2018-07-03T07:37:39.011Z,33.64
2018-07-03T07:38:39.085Z,34.08
2018-07-03T07:39:39.048Z,34.4
2018-07-03T07:40:39.044Z,34.29
2018-07-03T07:41:39.024Z,34.02
2018-07-03T07:42:39.177Z,33.73
2018-07-03T07:43:39.062Z,33.64
2018-07-03T07:44:39.319Z,33.92
2018-07-03T07:45:39.148Z,34.13
2018-07-03T07:46:38.815Z,34.5
2018-07-03T07:47:39.096Z,34.5
2018-07-03T07:48:39.093Z,34.45
2018-07-03T07:49:38.869Z,34.4
2018-07-03T07:50:39.185Z,34.11
2018-07-03T07:51:38.865Z,33.84
2018-07-03T07:52:39.172Z,33.28
2018-07-03T07:53:39.389Z,32.64
2018-07-03T07:54:38.910Z,32.19
2018-07-03T07:55:39.172Z,31.71
2018-07-03T07:56:39.169Z,31.84
2018-07-03T07:57:39.174Z,31.92
2018-07-03T07:58:39.444Z,32.08
2018-07-03T07:59:39.451Z,32.12
2018-07-03T08:00:39.194Z,32.18
2018-07-03T08:01:39.467Z,32.11
2018-07-03T08:02:39.212Z,32.11
2018-07-03T08:03:39.230Z,32.45
2018-07-03T08:04:39.242Z,32.31
2018-07-03T08:05:39.554Z,32.19
2018-07-03T08:06:39.384Z,31.87
2018-07-03T08:07:39.526Z,31.81
2018-07-03T08:08:39.530Z,31.87
2018-07-03T08:09:39.545Z,31.93
2018-07-03T08:10:39.320Z,32.23
2018-07-03T08:11:39.309Z,32.58
2018-07-03T08:12:39.312Z,32.8
2018-07-03T08:13:39.586Z,33.07
2018-07-03T08:14:39.319Z,33.46
2018-07-03T08:15:39.384Z,33.84
2018-07-03T08:16:39.111Z,34.4
2018-07-03T08:17:39.622Z,34.51
2018-07-03T08:18:39.105Z,34.45
2018-07-03T08:19:39.631Z,34.4
2018-07-03T08:20:39.429Z,34.27
2018-07-03T08:21:39.406Z,34.1
2018-07-03T08:22:39.661Z,34.03
2018-07-03T08:23:39.414Z,34.01
2018-07-03T08:24:39.418Z,34.17
2018-07-03T08:25:39.697Z,34.21
2018-07-03T08:26:39.479Z,34.06
2018-07-03T08:27:39.437Z,33.79
2018-07-03T08:28:39.440Z,33.67
2018-07-03T08:29:39.729Z,33.45
2018-07-03T08:30:39.247Z,33.28
2018-07-03T08:31:39.472Z,33.19
2018-07-03T08:32:39.493Z,33.02
2018-07-03T08:33:39.764Z,32.92
2018-07-03T08:34:39.761Z,32.83
2018-07-03T08:35:39.764Z,32.59
2018-07-03T08:36:39.769Z,32.31
2018-07-03T08:37:39.786Z,32.23
2018-07-03T08:38:39.796Z,32.33
2018-07-03T08:39:39.798Z,32.19
2018-07-03T08:40:39.561Z,32.19
2018-07-03T08:41:39.826Z,32.45
2018-07-03T08:42:39.837Z,32.31
2018-07-03T08:43:39.592Z,32.56
2018-07-03T08:44:39.596Z,32.87
2018-07-03T08:45:39.905Z,33.12
2018-07-03T08:46:39.881Z,33.17
2018-07-03T08:47:39.861Z,33.31
2018-07-03T08:48:39.652Z,33.45
2018-07-03T08:49:39.909Z,33.49
2018-07-03T08:50:39.911Z,33.58
2018-07-03T08:51:39.752Z,33.74
2018-07-03T08:52:39.680Z,33.55
2018-07-03T08:53:39.919Z,33.37
2018-07-03T08:54:39.685Z,33.27
2018-07-03T08:55:39.733Z,33.24
2018-07-03T08:56:39.971Z,33.24
2018-07-03T08:57:39.713Z,33.52
2018-07-03T08:58:39.977Z,33.45
2018-07-03T08:59:39.727Z,33.46
2018-07-03T09:00:39.993Z,33.28
2018-07-03T09:01:39.742Z,33.01
2018-07-03T09:02:40.000Z,32.64
2018-07-03T09:03:40.018Z,32.07
2018-07-03T09:04:40.024Z,31.9
2018-07-03T09:05:39.831Z,31.55
2018-07-03T09:06:40.033Z,31.09
2018-07-03T09:07:39.794Z,30.62
2018-07-03T09:08:40.057Z,30.18
2018-07-03T09:09:40.065Z,29.69
2018-07-03T09:10:40.067Z,29.23
2018-07-03T09:11:39.938Z,28.98
2018-07-03T09:12:39.835Z,28.97
2018-07-03T09:13:40.098Z,28.93
2018-07-03T09:14:40.103Z,28.72
2018-07-03T09:15:39.915Z,28.63
2018-07-03T09:16:40.119Z,28.49
2018-07-03T09:17:40.123Z,28.59
2018-07-03T09:18:40.143Z,28.69
2018-07-03T09:19:40.142Z,28.94
2018-07-03T09:20:39.901Z,28.97
2018-07-03T09:21:40.173Z,29.07
2018-07-03T09:22:40.169Z,29.08
2018-07-03T09:23:39.978Z,29.04
2018-07-03T09:24:39.926Z,28.98
2018-07-03T09:25:39.986Z,28.93
2018-07-03T09:26:40.186Z,28.97
2018-07-03T09:27:40.200Z,28.88
2018-07-03T09:28:39.693Z,28.76
2018-07-03T09:29:39.975Z,28.7
2018-07-03T09:30:40.396Z,28.76
2018-07-03T09:31:39.999Z,28.66
2018-07-03T09:32:40.249Z,28.78
2018-07-03T09:33:39.979Z,28.86
2018-07-03T09:34:40.244Z,28.94
2018-07-03T09:35:40.293Z,28.93
2018-07-03T09:36:40.258Z,29.05
2018-07-03T09:37:40.283Z,29.19
2018-07-03T09:38:40.266Z,29.35
2018-07-03T09:39:40.295Z,29.6
2018-07-03T09:40:39.787Z,29.72
2018-07-03T09:41:40.314Z,29.94
2018-07-03T09:42:40.038Z,30.09
2018-07-03T09:43:40.046Z,30.1
2018-07-03T09:44:40.071Z,30.06
2018-07-03T09:45:40.091Z,30.12
2018-07-03T09:46:40.066Z,30.32
2018-07-03T09:47:40.338Z,30.44
2018-07-03T09:48:40.078Z,30.51
2018-07-03T09:49:40.339Z,30.75
2018-07-03T09:50:39.892Z,30.75
2018-07-03T09:51:39.857Z,30.81
2018-07-03T09:52:39.857Z,30.88
2018-07-03T09:53:40.377Z,30.75
2018-07-03T09:54:40.468Z,30.77
2018-07-03T09:55:40.422Z,30.84
2018-07-03T09:56:40.385Z,31.05
2018-07-03T09:57:40.155Z,31.05
2018-07-03T09:58:39.902Z,31.18
2018-07-03T09:59:40.146Z,31.18
2018-07-03T10:00:40.466Z,31.06
2018-07-03T10:01:40.431Z,30.85
2018-07-03T10:02:39.912Z,30.8
2018-07-03T10:03:40.168Z,30.68
2018-07-03T10:04:40.225Z,30.5
2018-07-03T10:05:40.448Z,30.46
2018-07-03T10:06:40.453Z,30.35
2018-07-03T10:07:40.463Z,30.37
2018-07-03T10:08:39.960Z,30.37
2018-07-03T10:09:40.457Z,30.37
2018-07-03T10:10:40.252Z,30.4
2018-07-03T10:11:40.505Z,30.44
2018-07-03T10:12:40.253Z,30.37
2018-07-03T10:13:40.276Z,30.3
2018-07-03T10:14:40.252Z,30.16
2018-07-03T10:15:40.500Z,29.97
2018-07-03T10:16:40.508Z,30.02
2018-07-03T10:17:40.024Z,30.02
2018-07-03T10:18:40.535Z,30.12
2018-07-03T10:19:40.526Z,30.06
2018-07-03T10:20:40.568Z,30.1
2018-07-03T10:21:40.550Z,29.98
2018-07-03T10:22:40.285Z,29.91
2018-07-03T10:53:42.124Z,30.15
2018-07-03T10:54:41.868Z,30.08
2018-07-03T10:55:41.901Z,30.13
2018-07-03T10:56:41.628Z,30.12
2018-07-03T10:57:41.647Z,30.09
2018-07-03T10:58:41.693Z,30.13
2018-07-03T10:59:42.075Z,29.97
2018-07-03T11:00:41.910Z,29.94
2018-07-03T11:01:41.891Z,29.91
2018-07-03T11:02:41.661Z,29.87
2018-07-03T11:03:41.655Z,29.95
2018-07-03T11:04:41.672Z,30.06
2018-07-03T11:05:42.088Z,30.09
2018-07-03T11:06:41.676Z,30.09
2018-07-03T11:07:41.681Z,30.06
2018-07-03T11:08:41.692Z,30.08
2018-07-03T11:09:41.938Z,29.94
2018-07-03T11:10:41.487Z,30
2018-07-03T11:11:41.706Z,30.05
2018-07-03T11:12:41.976Z,30.13
2018-07-03T11:13:41.739Z,30.28
2018-07-03T11:14:41.976Z,30.37
2018-07-03T11:15:41.723Z,30.28
2018-07-03T11:16:42.230Z,30.32
2018-07-03T11:17:41.986Z,30.31
2018-07-03T11:18:41.768Z,30.34
2018-07-03T11:19:42.195Z,30.39
2018-07-03T11:20:42.056Z,30.37
2018-07-03T11:21:42.008Z,30.28
2018-07-03T11:22:42.017Z,30.24
2018-07-03T11:23:42.840Z,30.27
2018-07-03T11:24:41.786Z,30.4
2018-07-03T11:25:41.523Z,30.46
2018-07-03T11:26:41.541Z,30.48
2018-07-03T11:27:41.791Z,30.51
2018-07-03T11:28:42.046Z,30.54
2018-07-03T11:29:41.564Z,30.59
2018-07-03T11:30:42.065Z,30.47
2018-07-03T11:31:41.810Z,30.51
2018-07-03T11:32:41.570Z,30.4
2018-07-03T11:33:41.601Z,30.37
2018-07-03T11:34:41.828Z,30.24
2018-07-03T11:35:42.100Z,30.13
2018-07-03T11:36:42.091Z,30.19
2018-07-03T11:37:41.931Z,30.16
2018-07-03T11:38:41.866Z,30
2018-07-03T11:39:42.113Z,29.98
2018-07-03T11:40:41.614Z,29.82
2018-07-03T11:41:41.670Z,29.81
2018-07-03T11:42:41.883Z,29.86
2018-07-03T11:43:41.892Z,29.84
2018-07-03T11:44:41.927Z,29.88
2018-07-03T11:45:41.663Z,29.9
2018-07-03T11:46:42.028Z,29.98
2018-07-03T11:47:41.667Z,29.98
2018-07-03T11:48:41.660Z,30.13
2018-07-03T11:49:41.918Z,30.12
2018-07-03T11:50:42.221Z,30
2018-07-03T11:51:42.177Z,30.13
2018-07-03T11:52:42.180Z,30.15
2018-07-03T11:53:42.591Z,30.25
2018-07-03T11:54:41.942Z,30.32
2018-07-03T11:55:42.207Z,30.44
2018-07-03T11:56:41.725Z,30.63
2018-07-03T11:57:41.982Z,30.61
2018-07-03T11:58:42.222Z,30.63
2018-07-03T11:59:42.217Z,30.62
2018-07-03T12:00:42.034Z,30.59
2018-07-03T12:01:42.046Z,30.48
2018-07-03T12:02:42.247Z,30.48
2018-07-03T12:03:42.261Z,30.46
2018-07-03T12:04:42.252Z,30.4
2018-07-03T12:05:42.260Z,30.43
2018-07-03T12:06:42.276Z,30.4
2018-07-03T12:07:42.044Z,30.47
2018-07-03T12:08:42.278Z,30.35
2018-07-03T12:09:42.041Z,30.15
2018-07-03T12:10:42.307Z,29.97
2018-07-03T12:11:42.041Z,29.86
2018-07-03T12:12:42.295Z,29.93
2018-07-03T12:13:42.057Z,29.86
2018-07-03T12:14:42.305Z,29.78
2018-07-03T12:15:42.061Z,29.72
2018-07-03T12:16:41.809Z,29.72
2018-07-03T12:17:41.837Z,29.6
2018-07-03T12:18:42.090Z,29.53
2018-07-03T12:19:42.235Z,29.51
2018-07-03T12:20:42.095Z,29.44
2018-07-03T12:21:42.099Z,29.44
2018-07-03T12:22:41.863Z,29.45
2018-07-03T12:23:42.018Z,29.39
2018-07-03T12:24:42.367Z,29.45
2018-07-03T12:25:42.374Z,29.54
2018-07-03T12:26:42.130Z,29.5
2018-07-03T12:27:42.385Z,29.6
2018-07-03T12:28:41.883Z,29.68
2018-07-03T12:29:42.147Z,29.6
2018-07-03T12:30:42.413Z,29.53
2018-07-03T12:31:41.911Z,29.51
2018-07-03T12:32:42.173Z,29.53
2018-07-03T12:33:42.177Z,29.56
2018-07-03T12:34:42.423Z,29.63
2018-07-03T12:35:42.171Z,29.73
2018-07-03T12:36:42.332Z,29.63
2018-07-03T12:37:42.183Z,29.57
2018-07-03T12:38:42.441Z,29.57
2018-07-03T12:39:42.460Z,29.56
2018-07-03T12:40:41.962Z,29.39
2018-07-03T12:41:42.220Z,29.41
2018-07-03T12:42:42.211Z,29.35
2018-07-03T12:43:42.235Z,29.42
2018-07-03T12:44:42.492Z,29.59
2018-07-03T12:45:42.237Z,29.73
2018-07-03T12:46:42.237Z,29.86
2018-07-03T12:47:42.249Z,30
2018-07-03T12:48:43.062Z,30.12
2018-07-03T12:49:42.569Z,30.27
2018-07-03T12:50:42.514Z,30.25
2018-07-03T12:51:42.259Z,30.18
2018-07-03T12:52:42.262Z,30.25
2018-07-03T12:53:42.536Z,30.25
2018-07-03T12:54:42.274Z,30.39
2018-07-03T12:55:42.301Z,30.34
2018-07-03T12:56:42.296Z,30.25
2018-07-03T12:57:42.567Z,30.05
2018-07-03T12:58:42.556Z,30.12
2018-07-03T12:59:42.586Z,30.05
2018-07-03T13:00:42.311Z,30.1
2018-07-03T13:01:42.325Z,30.05
2018-07-03T13:02:42.577Z,30.09
2018-07-03T13:03:42.337Z,29.98
2018-07-03T13:04:42.598Z,30.15
2018-07-03T13:05:42.095Z,30.24
2018-07-03T13:06:42.379Z,30.23
2018-07-03T13:07:42.366Z,30.37
2018-07-03T13:08:42.119Z,30.27
2018-07-03T13:09:42.370Z,30.44
2018-07-03T13:10:42.634Z,30.46
2018-07-03T13:11:42.409Z,30.44
2018-07-03T13:12:42.390Z,30.46
2018-07-03T13:13:42.646Z,30.5
2018-07-03T13:14:42.413Z,30.43
2018-07-03T13:15:42.402Z,30.43
2018-07-03T13:16:42.667Z,30.47
2018-07-03T13:17:42.429Z,30.44
2018-07-03T13:18:42.713Z,30.32
2018-07-03T13:19:42.459Z,30.35
2018-07-03T13:20:42.735Z,30.28
2018-07-03T13:21:42.447Z,30.13
2018-07-03T13:22:42.191Z,30.05
2018-07-03T13:23:42.452Z,29.97
2018-07-03T13:24:42.212Z,29.98
2018-07-03T13:25:42.722Z,30.03
2018-07-03T13:26:42.224Z,30.13
2018-07-03T13:27:42.751Z,30.13
2018-07-03T13:28:42.762Z,30.13
2018-07-03T13:29:42.517Z,30.08
2018-07-03T13:30:42.762Z,30.02
2018-07-03T13:31:42.930Z,29.98
2018-07-03T13:32:42.771Z,30.06
2018-07-03T13:33:42.509Z,30.16
2018-07-03T13:34:42.520Z,30.24
2018-07-03T13:35:42.777Z,30.25